San Diego (SAN/KSAN)

Information

Location
San Diego, CA
Local Time
16:22 / 4:22 pm
GMT Time
00:22 / 12:22 am
Gates
Unassigned
No FAA reported delays
METAR KSAN 222351Z 29013KT 10SM FEW026 SCT080 SCT120 BKN200 16/06 A3010 RMK AO2 SLP191 T01610056 10178 20161 55007
TAF KSAN 222339Z 2300/2406 31011KT P6SM FEW017 BKN140 BKN250 FM230200 VRB05KT P6SM SCT025 FM231800 31012KT P6SM SKC FM240200 VRB05KT P6SM SKC
  • No charts available